createdAt,value
2023-02-23T00:02:07.311Z,72.78
2023-02-23T00:04:38.373Z,71.96
2023-02-23T00:07:08.580Z,72.12
2023-02-23T00:09:35.937Z,72.50
2023-02-23T00:12:09.152Z,72.77
2023-02-23T00:14:38.114Z,73.90
2023-02-23T00:17:10.676Z,72.72
2023-02-23T00:19:37.680Z,73.73
2023-02-23T00:22:04.681Z,73.67
2023-02-23T00:24:31.611Z,72.67
2023-02-23T00:26:58.605Z,73.39
2023-02-23T00:29:26.128Z,74.81
2023-02-23T00:31:55.982Z,73.66
2023-02-23T00:34:23.579Z,72.96
2023-02-23T00:36:56.430Z,72.83
2023-02-23T00:39:29.089Z,73.16
2023-02-23T00:41:56.928Z,72.78
2023-02-23T00:44:25.079Z,73.20
2023-02-23T00:46:52.875Z,73.08
2023-02-23T00:49:23.413Z,72.31
2023-02-23T00:51:52.098Z,72.48
2023-02-23T00:54:21.517Z,72.87
2023-02-23T00:56:49.756Z,72.25
2023-02-23T00:59:17.142Z,72.12
2023-02-23T01:01:44.881Z,72.44
2023-02-23T01:04:13.033Z,72.22
2023-02-23T01:06:41.412Z,72.56
2023-02-23T01:09:21.766Z,72.33
2023-02-23T01:11:49.335Z,73.05
2023-02-23T01:14:17.825Z,72.26
2023-02-23T01:16:44.769Z,73.03
2023-02-23T01:19:11.819Z,72.57
2023-02-23T01:21:42.065Z,72.15
2023-02-23T01:24:10.103Z,72.34
2023-02-23T01:26:41.100Z,73.47
2023-02-23T01:29:16.837Z,71.55
2023-02-23T01:31:48.426Z,73.00
2023-02-23T01:34:19.721Z,73.92
2023-02-23T01:36:47.039Z,74.87
2023-02-23T01:39:17.865Z,73.15
2023-02-23T01:41:45.417Z,74.02
2023-02-23T01:44:15.308Z,74.12
2023-02-23T01:46:45.775Z,73.25
2023-02-23T01:49:20.832Z,74.42
2023-02-23T01:52:02.323Z,73.66
2023-02-23T01:54:36.349Z,75.28
2023-02-23T01:57:06.097Z,75.28
2023-02-23T01:59:44.020Z,74.12
2023-02-23T02:02:13.181Z,74.65
2023-02-23T02:04:45.771Z,76.10
2023-02-23T02:07:22.942Z,75.87
2023-02-23T02:10:12.176Z,73.63
2023-02-23T02:12:53.350Z,73.87
2023-02-23T02:15:25.888Z,73.99
2023-02-23T02:18:30.566Z,73.06
2023-02-23T02:21:51.692Z,72.85
2023-02-23T02:25:01.443Z,75.78
2023-02-23T02:27:52.792Z,74.01
2023-02-23T02:30:44.526Z,72.80
2023-02-23T02:33:49.723Z,73.18
2023-02-23T02:37:03.668Z,72.53
2023-02-23T02:40:27.619Z,72.80
2023-02-23T02:43:23.665Z,74.48
2023-02-23T02:46:17.420Z,74.29
2023-02-23T02:49:17.647Z,73.35
2023-02-23T02:52:13.212Z,76.48
2023-02-23T02:54:53.327Z,73.79
2023-02-23T02:57:26.285Z,75.35
2023-02-23T03:00:11.511Z,74.25
2023-02-23T03:02:59.394Z,74.09
2023-02-23T03:06:01.842Z,74.51
2023-02-23T03:09:08.329Z,76.03
2023-02-23T03:12:23.599Z,77.10
2023-02-23T03:16:06.274Z,76.13
2023-02-23T03:19:12.402Z,75.38
2023-02-23T03:22:39.841Z,74.94
2023-02-23T03:25:41.965Z,77.09
2023-02-23T03:28:43.728Z,75.58
2023-02-23T03:32:04.271Z,73.98
2023-02-23T03:35:06.000Z,74.61
2023-02-23T03:38:06.873Z,76.04
2023-02-23T03:40:58.323Z,75.01
2023-02-23T03:43:53.648Z,74.52
2023-02-23T03:46:41.343Z,75.32
2023-02-23T03:49:30.198Z,74.94
2023-02-23T03:52:34.566Z,74.54
2023-02-23T03:55:27.570Z,74.96
2023-02-23T03:58:19.791Z,75.69
2023-02-23T04:01:09.831Z,75.54
2023-02-23T04:04:01.067Z,74.62
2023-02-23T04:06:50.938Z,74.73
2023-02-23T04:09:36.358Z,75.15
2023-02-23T04:12:48.613Z,73.55
2023-02-23T04:15:36.629Z,74.61
2023-02-23T04:18:12.044Z,74.73
2023-02-23T04:20:39.018Z,75.39
2023-02-23T04:23:06.029Z,75.26
2023-02-23T04:25:33.035Z,76.03
2023-02-23T04:27:59.992Z,74.99
2023-02-23T04:30:28.360Z,75.62
2023-02-23T04:32:56.772Z,75.54
2023-02-23T04:35:23.728Z,75.34
2023-02-23T04:37:50.628Z,75.23
2023-02-23T04:40:17.958Z,75.77
2023-02-23T04:42:44.889Z,75.08
2023-02-23T04:45:12.058Z,76.00
2023-02-23T04:47:39.084Z,75.40
2023-02-23T04:50:06.793Z,75.57
2023-02-23T04:52:34.962Z,75.85
2023-02-23T04:55:01.925Z,75.40
2023-02-23T04:57:29.092Z,75.20
2023-02-23T04:59:56.093Z,75.81
2023-02-23T05:02:25.008Z,75.83
2023-02-23T05:04:52.285Z,75.25
2023-02-23T05:07:19.269Z,75.71
2023-02-23T05:09:46.236Z,75.83
2023-02-23T05:12:13.170Z,75.63
2023-02-23T05:14:40.153Z,75.61
2023-02-23T05:17:08.786Z,75.72
2023-02-23T05:19:36.425Z,75.44
2023-02-23T05:22:03.456Z,75.07
2023-02-23T05:24:30.414Z,75.33
2023-02-23T05:26:57.355Z,75.38
2023-02-23T05:29:24.485Z,75.01
2023-02-23T05:31:51.450Z,75.20
2023-02-23T05:34:18.487Z,75.66
2023-02-23T05:36:45.402Z,75.47
2023-02-23T05:39:12.324Z,75.36
2023-02-23T05:41:39.668Z,75.59
2023-02-23T05:44:06.819Z,75.50
2023-02-23T05:46:33.809Z,75.61
2023-02-23T05:49:01.571Z,75.33
2023-02-23T05:51:30.894Z,75.54
2023-02-23T05:53:58.039Z,74.93
2023-02-23T05:56:25.337Z,75.36
2023-02-23T05:58:57.898Z,75.05
2023-02-23T06:01:27.129Z,75.33
2023-02-23T06:03:54.348Z,75.34
2023-02-23T06:06:22.284Z,75.15
2023-02-23T06:08:49.794Z,75.01
2023-02-23T06:11:17.023Z,75.56
2023-02-23T06:13:44.215Z,75.49
2023-02-23T06:16:11.328Z,75.08
2023-02-23T06:18:38.324Z,75.34
2023-02-23T06:21:05.760Z,75.63
2023-02-23T06:23:33.542Z,75.59
2023-02-23T06:26:00.639Z,75.05
2023-02-23T06:28:28.909Z,75.70
2023-02-23T06:30:56.972Z,75.70
2023-02-23T06:33:24.333Z,77.06
2023-02-23T06:35:51.486Z,75.93
2023-02-23T06:38:19.165Z,76.32
2023-02-23T06:40:46.389Z,76.44
2023-02-23T06:43:13.320Z,76.27
2023-02-23T06:45:40.790Z,75.66
2023-02-23T06:48:07.888Z,75.63
2023-02-23T06:50:34.912Z,75.95
2023-02-23T06:53:02.169Z,75.40
2023-02-23T06:55:29.116Z,75.98
2023-02-23T06:57:56.141Z,76.11
2023-02-23T07:00:23.400Z,75.65
2023-02-23T07:02:50.340Z,75.36
2023-02-23T07:05:17.573Z,76.94
2023-02-23T07:07:45.400Z,76.20
2023-02-23T07:10:12.448Z,77.09
2023-02-23T07:12:39.389Z,76.58
2023-02-23T07:15:07.144Z,76.23
2023-02-23T07:17:34.138Z,75.88
2023-02-23T07:20:01.143Z,76.18
2023-02-23T07:22:30.258Z,76.94
2023-02-23T07:24:57.899Z,75.84
2023-02-23T07:27:25.486Z,76.26
2023-02-23T07:29:52.464Z,75.89
2023-02-23T07:32:19.614Z,75.87
2023-02-23T07:34:47.652Z,76.77
2023-02-23T07:37:15.343Z,76.54
2023-02-23T07:39:42.295Z,76.77
2023-02-23T07:42:09.216Z,76.58
2023-02-23T07:44:36.379Z,76.36
2023-02-23T07:47:03.400Z,76.35
2023-02-23T07:49:30.475Z,76.08
2023-02-23T07:51:57.412Z,76.28
2023-02-23T07:54:25.360Z,76.59
2023-02-23T07:56:53.011Z,76.14
2023-02-23T07:59:20.044Z,76.26
2023-02-23T08:01:47.078Z,76.29
2023-02-23T08:04:14.096Z,76.88
2023-02-23T08:06:41.076Z,76.63
2023-02-23T08:09:08.031Z,76.31
2023-02-23T08:11:34.992Z,76.49
2023-02-23T08:14:02.044Z,76.76
2023-02-23T08:16:33.611Z,76.70
2023-02-23T08:19:01.468Z,76.57
2023-02-23T08:21:31.536Z,77.00
2023-02-23T08:23:58.837Z,76.79
2023-02-23T08:26:26.141Z,77.23
2023-02-23T08:28:54.824Z,76.71
2023-02-23T08:31:24.127Z,76.83
2023-02-23T08:33:52.298Z,76.48
2023-02-23T08:36:20.736Z,76.68
2023-02-23T08:38:48.320Z,77.08
2023-02-23T08:41:15.872Z,76.61
2023-02-23T08:43:44.157Z,77.08
2023-02-23T08:46:11.701Z,76.81
2023-02-23T08:48:40.351Z,77.33
2023-02-23T08:51:08.831Z,77.18
2023-02-23T08:53:36.557Z,77.37
2023-02-23T08:56:07.347Z,77.50
2023-02-23T08:58:35.864Z,76.57
2023-02-23T09:01:03.964Z,77.20
2023-02-23T09:03:31.996Z,77.25
2023-02-23T09:06:09.452Z,76.90
2023-02-23T09:08:36.670Z,77.69
2023-02-23T09:11:03.614Z,78.11
2023-02-23T09:13:30.571Z,77.60
2023-02-23T09:15:58.026Z,77.48
2023-02-23T09:18:27.801Z,77.81
2023-02-23T09:20:55.130Z,78.51
2023-02-23T09:23:23.467Z,78.20
2023-02-23T09:25:50.571Z,77.92
2023-02-23T09:28:20.062Z,77.92
2023-02-23T09:30:48.323Z,77.70
2023-02-23T09:33:15.259Z,78.37
2023-02-23T09:35:42.336Z,78.11
2023-02-23T09:38:09.505Z,78.02
2023-02-23T09:40:55.018Z,77.96
2023-02-23T09:44:11.969Z,78.40
2023-02-23T09:47:19.943Z,78.70
2023-02-23T09:49:48.815Z,79.54
2023-02-23T09:52:22.407Z,79.08
2023-02-23T09:54:49.808Z,79.58
2023-02-23T09:57:31.649Z,79.14
2023-02-23T09:59:58.806Z,79.50
2023-02-23T10:02:46.744Z,79.06
2023-02-23T10:05:15.809Z,78.77
2023-02-23T10:07:58.838Z,78.76
2023-02-23T10:10:45.646Z,78.07
2023-02-23T10:13:33.161Z,78.50
2023-02-23T10:16:13.712Z,78.32
2023-02-23T10:19:03.971Z,78.48
2023-02-23T10:21:38.657Z,78.91
2023-02-23T10:24:28.596Z,78.89
2023-02-23T10:27:41.961Z,79.34
2023-02-23T10:30:29.858Z,79.87
2023-02-23T10:33:23.706Z,79.54
2023-02-23T10:36:11.199Z,79.34
2023-02-23T10:38:39.744Z,79.25
2023-02-23T10:41:07.145Z,78.93
2023-02-23T10:43:34.297Z,79.35
2023-02-23T10:46:02.016Z,79.33
2023-02-23T10:48:39.656Z,79.15
2023-02-23T10:51:14.368Z,79.41
2023-02-23T10:53:41.271Z,79.53
2023-02-23T10:56:13.690Z,79.24
2023-02-23T10:58:51.401Z,79.45
2023-02-23T11:02:00.395Z,79.69
2023-02-23T11:04:31.535Z,79.54
2023-02-23T11:07:30.238Z,79.61
2023-02-23T11:10:27.590Z,79.84
2023-02-23T11:12:54.587Z,79.42
2023-02-23T11:15:31.956Z,79.67
2023-02-23T11:18:05.475Z,79.33
2023-02-23T11:20:41.677Z,79.53
2023-02-23T11:23:29.178Z,79.58
2023-02-23T11:26:02.842Z,78.94
2023-02-23T11:28:37.372Z,78.86
2023-02-23T11:31:31.993Z,78.42
2023-02-23T11:33:59.753Z,78.45
2023-02-23T11:36:33.746Z,78.43
2023-02-23T11:39:23.389Z,78.88
2023-02-23T11:42:20.269Z,78.54
2023-02-23T11:45:20.581Z,78.75
2023-02-23T11:47:51.461Z,78.77
2023-02-23T11:50:30.415Z,79.44
2023-02-23T11:53:06.379Z,79.07
2023-02-23T11:55:34.858Z,78.78
2023-02-23T11:58:28.203Z,79.03
2023-02-23T12:01:13.328Z,79.02
2023-02-23T12:04:03.998Z,79.26
2023-02-23T12:06:42.011Z,79.66
2023-02-23T12:09:26.456Z,79.86
2023-02-23T12:12:11.001Z,80.42
2023-02-23T12:14:45.001Z,80.27
2023-02-23T12:17:29.710Z,81.42
2023-02-23T12:20:16.120Z,81.39
2023-02-23T12:22:58.797Z,81.20
2023-02-23T12:25:40.191Z,80.87
2023-02-23T12:29:11.043Z,81.25
2023-02-23T12:32:02.981Z,80.83
2023-02-23T12:34:51.633Z,79.72
2023-02-23T12:37:48.028Z,80.53
2023-02-23T12:40:27.166Z,81.07
2023-02-23T12:43:21.449Z,81.45
2023-02-23T12:46:14.442Z,81.55
2023-02-23T12:49:16.994Z,82.28
2023-02-23T12:51:55.949Z,81.18
2023-02-23T12:54:23.249Z,80.58
2023-02-23T12:57:14.497Z,80.76
2023-02-23T13:00:30.527Z,81.49
2023-02-23T13:03:16.824Z,81.21
2023-02-23T13:06:11.858Z,81.58
2023-02-23T13:09:03.052Z,81.43
2023-02-23T13:11:43.426Z,80.99
2023-02-23T13:14:48.037Z,81.52
2023-02-23T13:17:54.776Z,81.41
2023-02-23T13:20:47.797Z,80.99
2023-02-23T13:23:40.892Z,80.84
2023-02-23T13:26:24.723Z,80.70
2023-02-23T13:29:10.725Z,80.73
2023-02-23T13:31:41.202Z,80.10
2023-02-23T13:34:28.464Z,79.42
2023-02-23T13:36:56.961Z,79.17
2023-02-23T13:39:53.281Z,79.71
2023-02-23T13:42:53.248Z,79.62
2023-02-23T13:45:49.206Z,79.18
2023-02-23T13:48:39.807Z,79.12
2023-02-23T13:51:43.776Z,79.40
2023-02-23T13:54:13.693Z,78.36
2023-02-23T13:56:52.027Z,78.34
2023-02-23T13:59:42.539Z,78.86
2023-02-23T14:02:41.240Z,79.31
2023-02-23T14:05:29.109Z,78.82
2023-02-23T14:08:04.422Z,78.39
2023-02-23T14:10:45.176Z,78.66
2023-02-23T14:13:15.686Z,77.62
2023-02-23T14:15:48.159Z,77.37
2023-02-23T14:18:20.835Z,76.87
2023-02-23T14:21:43.333Z,77.92
2023-02-23T14:24:18.208Z,77.57
2023-02-23T14:27:11.158Z,78.01
2023-02-23T14:30:08.130Z,77.92
2023-02-23T14:32:46.948Z,77.62
2023-02-23T14:35:33.876Z,77.88
2023-02-23T14:38:17.519Z,77.33
2023-02-23T14:40:48.853Z,77.19
2023-02-23T14:43:43.743Z,77.92
2023-02-23T14:46:24.875Z,77.04
2023-02-23T14:49:10.148Z,77.01
2023-02-23T14:51:52.325Z,76.98
2023-02-23T14:54:40.200Z,77.03
2023-02-23T14:57:20.700Z,76.70
2023-02-23T15:00:01.344Z,76.92
2023-02-23T15:02:30.430Z,76.18
2023-02-23T15:04:57.683Z,76.08
2023-02-23T15:07:41.690Z,76.62
2023-02-23T15:10:18.667Z,76.01
2023-02-23T15:12:47.048Z,75.87
2023-02-23T15:15:20.869Z,76.32
2023-02-23T15:17:52.287Z,75.77
2023-02-23T15:20:28.567Z,75.85
2023-02-23T15:22:59.152Z,75.50
2023-02-23T15:25:40.644Z,75.58
2023-02-23T15:28:32.492Z,75.57
2023-02-23T15:31:04.637Z,75.72
2023-02-23T15:33:33.214Z,75.34
2023-02-23T15:36:27.565Z,75.50
2023-02-23T15:38:58.903Z,75.48
2023-02-23T15:41:29.127Z,75.25
2023-02-23T15:44:22.759Z,75.27
2023-02-23T15:47:04.698Z,75.04
2023-02-23T15:49:36.916Z,74.89
2023-02-23T15:52:09.399Z,75.30
2023-02-23T15:55:01.552Z,74.73
2023-02-23T15:57:44.633Z,75.02
2023-02-23T16:00:33.867Z,74.92
2023-02-23T16:03:03.955Z,74.51
2023-02-23T16:05:46.648Z,74.48
2023-02-23T16:08:25.193Z,74.75
2023-02-23T16:11:01.160Z,74.37
2023-02-23T16:13:28.620Z,74.36
2023-02-23T16:15:56.400Z,74.36
2023-02-23T16:18:39.496Z,73.97
2023-02-23T16:21:08.532Z,74.23
2023-02-23T16:23:44.606Z,74.17
2023-02-23T16:26:24.145Z,74.31
2023-02-23T16:29:00.134Z,74.35
2023-02-23T16:31:45.242Z,73.86
2023-02-23T16:34:35.414Z,74.22
2023-02-23T16:37:18.397Z,74.35
2023-02-23T16:39:45.777Z,73.69
2023-02-23T16:42:30.435Z,73.76
2023-02-23T16:44:58.410Z,73.68
2023-02-23T16:47:37.488Z,73.79
2023-02-23T16:50:24.609Z,73.80
2023-02-23T16:52:53.265Z,74.01
2023-02-23T16:55:27.622Z,73.91
2023-02-23T16:58:00.249Z,74.01
2023-02-23T17:00:30.889Z,73.58
2023-02-23T17:03:00.458Z,73.54
2023-02-23T17:05:28.962Z,73.74
2023-02-23T17:07:58.144Z,73.87
2023-02-23T17:10:33.276Z,73.69
2023-02-23T17:13:07.920Z,73.59
2023-02-23T17:15:39.442Z,73.75
2023-02-23T17:18:06.578Z,73.53
2023-02-23T17:20:33.917Z,73.63
2023-02-23T17:23:02.486Z,73.60
2023-02-23T17:25:29.891Z,73.56
2023-02-23T17:27:58.635Z,73.63
2023-02-23T17:30:26.539Z,73.58
2023-02-23T17:32:57.415Z,73.47
2023-02-23T17:35:25.562Z,73.00
2023-02-23T17:37:53.055Z,73.29
2023-02-23T17:40:26.337Z,73.15
2023-02-23T17:42:54.455Z,73.22
2023-02-23T17:45:22.599Z,73.15
2023-02-23T17:47:50.346Z,73.04
2023-02-23T17:50:19.928Z,73.40
2023-02-23T17:52:48.618Z,72.93
2023-02-23T17:55:19.667Z,73.17
2023-02-23T17:57:47.183Z,73.07
2023-02-23T18:00:16.639Z,73.49
2023-02-23T18:02:45.093Z,72.94
2023-02-23T18:05:13.825Z,73.42
2023-02-23T18:07:40.790Z,72.90
2023-02-23T18:10:08.630Z,73.01
2023-02-23T18:12:35.603Z,72.85
2023-02-23T18:15:02.702Z,72.92
2023-02-23T18:17:32.427Z,72.90
2023-02-23T18:20:00.543Z,73.03
2023-02-23T18:22:27.566Z,73.07
2023-02-23T18:24:55.720Z,73.19
2023-02-23T18:27:24.493Z,72.77
2023-02-23T18:29:51.455Z,72.98
2023-02-23T18:32:18.601Z,72.87
2023-02-23T18:34:45.639Z,72.97
2023-02-23T18:37:12.579Z,72.99
2023-02-23T18:39:39.480Z,72.69
2023-02-23T18:42:06.482Z,72.65
2023-02-23T18:44:35.185Z,73.17
2023-02-23T18:47:02.436Z,72.88
2023-02-23T18:49:29.475Z,72.68
2023-02-23T18:51:59.017Z,72.66
2023-02-23T18:54:26.617Z,73.12
2023-02-23T18:56:55.202Z,72.63
2023-02-23T18:59:22.213Z,72.75
2023-02-23T19:01:49.270Z,72.61
2023-02-23T19:04:16.427Z,72.90
2023-02-23T19:06:45.840Z,73.04
2023-02-23T19:09:14.550Z,72.47
2023-02-23T19:11:43.303Z,72.81
2023-02-23T19:14:19.822Z,72.66
2023-02-23T19:16:48.159Z,72.59
2023-02-23T19:19:16.197Z,72.73
2023-02-23T19:21:43.302Z,72.77
2023-02-23T19:24:10.637Z,72.83
2023-02-23T19:26:38.781Z,73.17
2023-02-23T19:29:06.446Z,72.96
2023-02-23T19:31:34.196Z,72.69
2023-02-23T19:34:03.235Z,73.26
2023-02-23T19:36:31.797Z,72.82
2023-02-23T19:39:05.928Z,72.61
2023-02-23T19:41:34.289Z,72.94
2023-02-23T19:44:01.646Z,72.62
2023-02-23T19:46:29.355Z,72.78
2023-02-23T19:48:56.674Z,72.77
2023-02-23T19:51:24.088Z,72.63
2023-02-23T19:53:54.568Z,72.84
2023-02-23T19:56:24.704Z,72.83
2023-02-23T19:58:52.429Z,73.18
2023-02-23T20:01:23.053Z,72.71
2023-02-23T20:03:56.632Z,72.69
2023-02-23T20:06:26.926Z,72.74
2023-02-23T20:08:55.004Z,72.88
2023-02-23T20:11:23.171Z,72.92
2023-02-23T20:13:51.241Z,73.03
2023-02-23T20:16:18.727Z,72.85
2023-02-23T20:18:46.374Z,72.82
2023-02-23T20:21:25.046Z,72.70
2023-02-23T20:23:53.398Z,72.58
2023-02-23T20:26:27.484Z,72.91
2023-02-23T20:28:56.630Z,72.93
2023-02-23T20:31:31.332Z,72.90
2023-02-23T20:34:02.551Z,73.17
2023-02-23T20:36:29.770Z,72.63
2023-02-23T20:38:57.342Z,73.04
2023-02-23T20:41:27.857Z,73.21
2023-02-23T20:43:56.089Z,72.90
2023-02-23T20:46:23.170Z,72.71
2023-02-23T20:48:50.261Z,72.84
2023-02-23T20:51:18.961Z,73.04
2023-02-23T20:53:47.979Z,72.84
2023-02-23T20:56:17.464Z,73.18
2023-02-23T20:58:45.786Z,72.99
2023-02-23T21:01:21.538Z,73.05
2023-02-23T21:03:51.432Z,73.25
2023-02-23T21:06:24.694Z,73.13
2023-02-23T21:08:55.641Z,73.19
2023-02-23T21:11:27.316Z,73.27
2023-02-23T21:13:54.524Z,72.87
2023-02-23T21:16:24.246Z,72.93
2023-02-23T21:19:03.748Z,72.85
2023-02-23T21:21:49.399Z,72.99
2023-02-23T21:24:18.689Z,73.49
2023-02-23T21:26:46.415Z,73.51
2023-02-23T21:29:14.903Z,73.46
2023-02-23T21:31:43.840Z,73.32
2023-02-23T21:34:11.682Z,73.29
2023-02-23T21:36:39.029Z,73.40
2023-02-23T21:39:06.580Z,72.99
2023-02-23T21:41:34.305Z,73.34
2023-02-23T21:44:04.132Z,73.39
2023-02-23T21:46:31.784Z,73.47
2023-02-23T21:48:59.047Z,73.07
2023-02-23T21:51:26.361Z,73.76
2023-02-23T21:53:57.871Z,73.52
2023-02-23T21:56:27.113Z,73.62
2023-02-23T21:58:56.194Z,73.32
2023-02-23T22:01:29.563Z,73.49
2023-02-23T22:03:57.852Z,73.07
2023-02-23T22:06:29.261Z,73.02
2023-02-23T22:08:57.397Z,73.38
2023-02-23T22:11:27.872Z,73.27
2023-02-23T22:13:58.928Z,73.38
2023-02-23T22:16:33.721Z,73.04
2023-02-23T22:19:04.039Z,73.31
2023-02-23T22:21:33.392Z,73.69
2023-02-23T22:24:01.584Z,73.15
2023-02-23T22:26:30.222Z,73.59
2023-02-23T22:28:57.144Z,73.48
2023-02-23T22:31:24.474Z,73.64
2023-02-23T22:33:51.871Z,73.26
2023-02-23T22:36:19.012Z,73.57
2023-02-23T22:38:46.750Z,73.26
2023-02-23T22:41:13.945Z,73.65
2023-02-23T22:43:46.292Z,73.04
2023-02-23T22:46:16.236Z,73.32
2023-02-23T22:48:45.101Z,73.46
2023-02-23T22:51:14.235Z,73.48
2023-02-23T22:53:41.643Z,73.50
2023-02-23T22:56:09.590Z,73.13
2023-02-23T22:58:36.997Z,73.26
2023-02-23T23:01:05.862Z,72.97
2023-02-23T23:03:36.954Z,73.21
2023-02-23T23:06:10.066Z,73.30
2023-02-23T23:08:41.033Z,73.28
2023-02-23T23:11:11.010Z,72.96
2023-02-23T23:13:45.481Z,73.06
2023-02-23T23:16:31.866Z,72.90
2023-02-23T23:19:11.875Z,73.20
2023-02-23T23:21:41.534Z,73.58
2023-02-23T23:24:13.125Z,73.42
2023-02-23T23:26:41.040Z,73.43
2023-02-23T23:29:12.704Z,73.01
2023-02-23T23:31:45.969Z,73.52
2023-02-23T23:34:16.284Z,73.35
2023-02-23T23:36:48.913Z,73.24
2023-02-23T23:39:18.060Z,73.24
2023-02-23T23:41:48.622Z,73.15
2023-02-23T23:44:21.460Z,73.22
2023-02-23T23:46:53.163Z,73.67
2023-02-23T23:49:25.379Z,73.52
2023-02-23T23:51:56.215Z,73.31
2023-02-23T23:54:38.915Z,72.91
2023-02-23T23:57:06.863Z,73.44
2023-02-23T23:59:35.213Z,73.31
